Reklama

Seznam meteostanic a jejich METAR

Vyhledat místa podle abecedy:
A B C D E F G H I J K L M N O P Q R S T U V W X Y Z

Filtrovat:

ID stanice:
a/nebo
Název místa (fulltext):
 
Místo (ID)Naposledy načteno 
Gaborone (FBSK) 19.11.2018 00:00 UTC Zobrazit METAR
FBSK 190000Z 08015KT CAVOK 22/13 Q1018 NOSIG
Gaza (LVGZ) Zatím nenačteno  
Geneva (LSGG) 19.11.2018 00:50 UTC Zobrazit METAR
LSGG 190050Z AUTO 01006KT 330V040 9999 SCT021 BKN024 03/M02 Q1012 NOSIG
George Town (MWCR) 19.11.2018 01:00 UTC Zobrazit METAR
MWCR 190100Z 05011KT 9999 FEW018 28/26 Q1015
Georgetown (SYCJ) 19.11.2018 01:00 UTC Zobrazit METAR
SYCJ 190100Z 06006KT CAVOK 25/25 Q1012 NOSIG
Gibraltar (LXGB) 19.11.2018 00:50 UTC Zobrazit METAR
LXGB 190050Z AUTO 21015G25KT 9999 // FEW016/// BKN046/// 15/12 Q1002
Glasgow (EGPF) 19.11.2018 00:50 UTC Zobrazit METAR
EGPF 190050Z AUTO 06003KT 9999 FEW021 05/04 Q1032
Gomel (UMGG) 30.08.2014 17:00 UTC Zobrazit METAR
UMGG 301700Z CAVOK 19/10 Q1017 R28/CLRD// NOSIG
Goteborg (ESGG) 19.11.2018 00:50 UTC Zobrazit METAR
ESGG 190050Z 06011KT 9999 OVC025 03/M02 Q1037 R03/19//95
Grand Turk Island (MBGT) 18.11.2018 22:00 UTC Zobrazit METAR
MBGT 182200Z 09009KT 9999 SCT025 27/22 Q1013
Graz (LOWG) 19.11.2018 00:50 UTC Zobrazit METAR
LOWG 190050Z AUTO VRB01KT 3300 -RASN BR FEW003 SCT011 BKN013 00/M00 Q1015
Grodno (UMMG) Zatím nenačteno  
Guatemala City (MGGT) 19.11.2018 01:00 UTC Zobrazit METAR
MGGT 190100Z 36010KT 9999 BKN015 19/15 Q1026 A3030
Reklama

Počasí na Váš email

Emaily jsou bez reklamy a bez spamu



Odhlásit newsletter

Reklama


Lunární kalendář

  • 23.11.
  • 30.11.
  • 07.12.
  • 15.12.



Reklama


Reklama
Povinné ručení
Reklama



Reklama